sensor_id;sensor_type;location;lat;lon;timestamp;pressure;altitude;pressure_sealevel;temperature;humidity
13836;BME280;6988;52.614;13.500;2023-08-01T00:00:59;54093.81;;;-143.77;75.53
13836;BME280;6988;52.614;13.500;2023-08-01T00:05:51;54093.81;;;-143.77;75.34
13836;BME280;6988;52.614;13.500;2023-08-01T00:10:45;54071.25;;;-143.77;75.99
13836;BME280;6988;52.614;13.500;2023-08-01T00:15:37;54067.13;;;-143.77;76.87
13836;BME280;6988;52.614;13.500;2023-08-01T00:20:30;54093.81;;;-143.77;77.26
13836;BME280;6988;52.614;13.500;2023-08-01T00:25:22;54114.31;;;-143.77;78.00
13836;BME280;6988;52.614;13.500;2023-08-01T00:30:14;54130.75;;;-143.77;78.30
13836;BME280;6988;52.614;13.500;2023-08-01T00:35:07;54134.84;;;-143.77;79.33
13836;BME280;6988;52.614;13.500;2023-08-01T00:40:01;54114.31;;;-143.77;80.28
13836;BME280;6988;52.614;13.500;2023-08-01T00:44:53;54083.56;;;-143.77;81.25
13836;BME280;6988;52.614;13.500;2023-08-01T00:49:45;54128.69;;;-143.77;81.42
13836;BME280;6988;52.614;13.500;2023-08-01T00:54:37;54130.75;;;-143.77;82.39
13836;BME280;6988;52.614;13.500;2023-08-01T00:59:31;54124.59;;;-143.77;82.60
13836;BME280;6988;52.614;13.500;2023-08-01T01:04:23;54106.13;;;-143.77;83.24
13836;BME280;6988;52.614;13.500;2023-08-01T01:09:16;54141.00;;;-143.77;83.47
13836;BME280;6988;52.614;13.500;2023-08-01T01:14:08;54147.16;;;-143.77;83.90
13836;BME280;6988;52.614;13.500;2023-08-01T01:19:06;54157.41;;;-143.77;84.29
13836;BME280;6988;52.614;13.500;2023-08-01T01:24:01;54147.16;;;-143.77;84.57
13836;BME280;6988;52.614;13.500;2023-08-01T01:28:54;54161.50;;;-143.77;84.63
13836;BME280;6988;52.614;13.500;2023-08-01T01:33:48;54130.75;;;-143.77;84.82
13836;BME280;6988;52.614;13.500;2023-08-01T01:38:40;54143.06;;;-143.77;85.09
13836;BME280;6988;52.614;13.500;2023-08-01T01:43:33;54151.25;;;-143.77;85.49
13836;BME280;6988;52.614;13.500;2023-08-01T01:48:25;54145.09;;;-143.77;85.59
13836;BME280;6988;52.614;13.500;2023-08-01T01:53:17;54143.06;;;-143.77;86.27
13836;BME280;6988;52.614;13.500;2023-08-01T01:58:09;54175.88;;;-143.77;86.49
13836;BME280;6988;52.614;13.500;2023-08-01T02:03:02;54159.47;;;-143.77;86.73
13836;BME280;6988;52.614;13.500;2023-08-01T02:07:54;54155.38;;;-143.77;86.78
13836;BME280;6988;52.614;13.500;2023-08-01T02:12:47;54175.88;;;-143.77;86.77
13836;BME280;6988;52.614;13.500;2023-08-01T02:17:39;54157.41;;;-143.77;87.01
13836;BME280;6988;52.614;13.500;2023-08-01T02:22:32;54177.94;;;-143.77;87.31
13836;BME280;6988;52.614;13.500;2023-08-01T02:27:25;54153.31;;;-143.77;87.26
13836;BME280;6988;52.614;13.500;2023-08-01T02:32:19;54165.63;;;-143.77;87.18
13836;BME280;6988;52.614;13.500;2023-08-01T02:37:11;54141.00;;;-143.77;87.04
13836;BME280;6988;52.614;13.500;2023-08-01T02:42:05;54165.63;;;-143.77;87.34
13836;BME280;6988;52.614;13.500;2023-08-01T02:46:56;54141.00;;;-143.77;87.48
13836;BME280;6988;52.614;13.500;2023-08-01T02:51:48;54155.38;;;-143.77;87.60
13836;BME280;6988;52.614;13.500;2023-08-01T02:56:40;54163.56;;;-143.77;87.60
13836;BME280;6988;52.614;13.500;2023-08-01T03:01:34;54151.25;;;-143.77;87.59
13836;BME280;6988;52.614;13.500;2023-08-01T03:06:25;54171.78;;;-143.77;87.23
13836;BME280;6988;52.614;13.500;2023-08-01T03:11:17;54163.56;;;-143.77;86.88
13836;BME280;6988;52.614;13.500;2023-08-01T03:16:09;54210.75;;;-143.77;86.14
13836;BME280;6988;52.614;13.500;2023-08-01T03:21:03;54143.06;;;-143.77;85.77
13836;BME280;6988;52.614;13.500;2023-08-01T03:25:55;54155.38;;;-143.77;85.62
13836;BME280;6988;52.614;13.500;2023-08-01T03:30:47;54208.72;;;-143.77;85.54
13836;BME280;6988;52.614;13.500;2023-08-01T03:35:41;54165.63;;;-143.77;85.68
13836;BME280;6988;52.614;13.500;2023-08-01T03:40:34;54229.22;;;-143.77;85.71
13836;BME280;6988;52.614;13.500;2023-08-01T03:45:26;54163.56;;;-143.77;85.51
13836;BME280;6988;52.614;13.500;2023-08-01T03:50:20;54151.25;;;-143.77;85.33
13836;BME280;6988;52.614;13.500;2023-08-01T03:55:14;54151.25;;;-143.77;85.33
13836;BME280;6988;52.614;13.500;2023-08-01T04:00:09;54157.41;;;-143.77;85.51
13836;BME280;6988;52.614;13.500;2023-08-01T04:05:04;54151.25;;;-143.77;85.63
13836;BME280;6988;52.614;13.500;2023-08-01T04:09:56;54171.78;;;-143.77;85.71
13836;BME280;6988;52.614;13.500;2023-08-01T04:14:48;54147.16;;;-143.77;85.81
13836;BME280;6988;52.614;13.500;2023-08-01T04:19:41;54143.06;;;-143.77;85.45
13836;BME280;6988;52.614;13.500;2023-08-01T04:24:33;54155.38;;;-143.77;85.29
13836;BME280;6988;52.614;13.500;2023-08-01T04:29:25;54134.84;;;-143.77;85.28
13836;BME280;6988;52.614;13.500;2023-08-01T04:34:18;54155.38;;;-143.77;85.18
13836;BME280;6988;52.614;13.500;2023-08-01T04:39:11;54145.09;;;-143.77;84.88
13836;BME280;6988;52.614;13.500;2023-08-01T04:44:03;54149.22;;;-143.77;84.41
13836;BME280;6988;52.614;13.500;2023-08-01T04:48:56;54159.47;;;-143.77;84.08
13836;BME280;6988;52.614;13.500;2023-08-01T04:53:47;54122.53;;;-143.77;83.85
13836;BME280;6988;52.614;13.500;2023-08-01T04:58:41;54136.91;;;-143.77;84.04
13836;BME280;6988;52.614;13.500;2023-08-01T05:03:32;54157.41;;;-143.77;84.10
13836;BME280;6988;52.614;13.500;2023-08-01T05:08:24;54147.16;;;-143.77;84.07
13836;BME280;6988;52.614;13.500;2023-08-01T05:13:16;54122.53;;;-143.77;84.00
13836;BME280;6988;52.614;13.500;2023-08-01T05:18:09;54126.63;;;-143.77;84.21
13836;BME280;6988;52.614;13.500;2023-08-01T05:23:01;54155.38;;;-143.77;84.20
13836;BME280;6988;52.614;13.500;2023-08-01T05:27:53;54114.31;;;-143.77;83.87
13836;BME280;6988;52.614;13.500;2023-08-01T05:32:45;54173.81;;;-143.77;83.91
13836;BME280;6988;52.614;13.500;2023-08-01T05:37:39;54106.13;;;-143.77;83.41
13836;BME280;6988;52.614;13.500;2023-08-01T05:42:31;54126.63;;;-143.77;83.08
13836;BME280;6988;52.614;13.500;2023-08-01T05:47:23;54132.78;;;-143.77;83.47
13836;BME280;6988;52.614;13.500;2023-08-01T05:52:15;54104.06;;;-143.77;83.10
13836;BME280;6988;52.614;13.500;2023-08-01T05:57:08;54104.06;;;-143.77;83.05
13836;BME280;6988;52.614;13.500;2023-08-01T06:02:00;54102.00;;;-143.77;82.83
13836;BME280;6988;52.614;13.500;2023-08-01T06:06:52;54102.00;;;-143.77;82.87
13836;BME280;6988;52.614;13.500;2023-08-01T06:11:44;54093.81;;;-143.77;82.27
13836;BME280;6988;52.614;13.500;2023-08-01T06:16:37;54130.75;;;-143.77;82.68
13836;BME280;6988;52.614;13.500;2023-08-01T06:21:29;54106.13;;;-143.77;82.89
13836;BME280;6988;52.614;13.500;2023-08-01T06:26:21;54118.44;;;-143.77;82.82
13836;BME280;6988;52.614;13.500;2023-08-01T06:31:13;54118.44;;;-143.77;82.80
13836;BME280;6988;52.614;13.500;2023-08-01T06:36:06;54124.59;;;-143.77;82.85
13836;BME280;6988;52.614;13.500;2023-08-01T06:40:58;54102.00;;;-143.77;82.50
13836;BME280;6988;52.614;13.500;2023-08-01T06:45:50;54132.78;;;-143.77;82.41
13836;BME280;6988;52.614;13.500;2023-08-01T06:50:42;54089.72;;;-143.77;81.87
13836;BME280;6988;52.614;13.500;2023-08-01T06:55:35;54136.91;;;-143.77;81.90
13836;BME280;6988;52.614;13.500;2023-08-01T07:00:27;54108.16;;;-143.77;82.60
13836;BME280;6988;52.614;13.500;2023-08-01T07:05:19;54138.94;;;-143.77;82.30
13836;BME280;6988;52.614;13.500;2023-08-01T07:10:11;54073.28;;;-143.77;82.51
13836;BME280;6988;52.614;13.500;2023-08-01T07:15:05;54079.44;;;-143.77;82.04
13836;BME280;6988;52.614;13.500;2023-08-01T07:19:58;54089.72;;;-143.77;81.77
13836;BME280;6988;52.614;13.500;2023-08-01T07:24:52;54077.41;;;-143.77;81.84
13836;BME280;6988;52.614;13.500;2023-08-01T07:29:45;54060.97;;;-143.77;80.84
13836;BME280;6988;52.614;13.500;2023-08-01T07:34:38;54046.63;;;-143.77;80.41
13836;BME280;6988;52.614;13.500;2023-08-01T07:39:30;54063.03;;;-143.77;79.82
13836;BME280;6988;52.614;13.500;2023-08-01T07:44:22;54032.25;;;-143.77;79.49
13836;BME280;6988;52.614;13.500;2023-08-01T07:49:14;53978.91;;;-143.77;78.69
13836;BME280;6988;52.614;13.500;2023-08-01T07:54:07;54007.63;;;-143.77;77.33
13836;BME280;6988;52.614;13.500;2023-08-01T07:58:59;53974.81;;;-143.77;77.07
13836;BME280;6988;52.614;13.500;2023-08-01T08:03:51;53950.19;;;-143.77;75.57
13836;BME280;6988;52.614;13.500;2023-08-01T08:08:42;53980.97;;;-143.77;75.48
13836;BME280;6988;52.614;13.500;2023-08-01T08:13:36;53983.00;;;-143.77;75.44
13836;BME280;6988;52.614;13.500;2023-08-01T08:18:27;53944.03;;;-143.77;74.42
13836;BME280;6988;52.614;13.500;2023-08-01T08:23:19;53944.03;;;-143.77;74.25
13836;BME280;6988;52.614;13.500;2023-08-01T08:28:12;53946.09;;;-143.77;73.41
13836;BME280;6988;52.614;13.500;2023-08-01T08:33:05;53974.81;;;-143.77;73.30
13836;BME280;6988;52.614;13.500;2023-08-01T08:37:59;53995.31;;;-143.77;74.03
13836;BME280;6988;52.614;13.500;2023-08-01T08:42:52;53939.94;;;-143.77;73.34
13836;BME280;6988;52.614;13.500;2023-08-01T08:47:50;53925.56;;;-143.77;72.70
13836;BME280;6988;52.614;13.500;2023-08-01T08:52:49;53933.78;;;-143.77;72.99
13836;BME280;6988;52.614;13.500;2023-08-01T08:57:42;53946.09;;;-143.77;70.80
13836;BME280;6988;52.614;13.500;2023-08-01T09:02:35;53882.50;;;-143.77;70.29
13836;BME280;6988;52.614;13.500;2023-08-01T09:07:30;53927.63;;;-143.77;70.14
13836;BME280;6988;52.614;13.500;2023-08-01T09:12:26;53941.97;;;-143.77;70.69
13836;BME280;6988;52.614;13.500;2023-08-01T09:17:18;53929.69;;;-143.77;70.09
13836;BME280;6988;52.614;13.500;2023-08-01T09:22:11;53864.03;;;-143.77;69.91
13836;BME280;6988;52.614;13.500;2023-08-01T09:27:04;53839.41;;;-143.77;67.85
13836;BME280;6988;52.614;13.500;2023-08-01T09:31:58;53806.56;;;-143.77;67.28
13836;BME280;6988;52.614;13.500;2023-08-01T09:36:51;53798.38;;;-143.77;66.42
13836;BME280;6988;52.614;13.500;2023-08-01T09:41:55;53800.41;;;-143.77;66.11
13836;BME280;6988;52.614;13.500;2023-08-01T09:46:57;53872.22;;;-143.77;64.45
13836;BME280;6988;52.614;13.500;2023-08-01T09:51:50;53855.81;;;-143.77;64.15
13836;BME280;6988;52.614;13.500;2023-08-01T09:56:45;53894.78;;;-143.77;64.65
13836;BME280;6988;52.614;13.500;2023-08-01T10:01:41;53905.06;;;-143.77;65.43
13836;BME280;6988;52.614;13.500;2023-08-01T10:06:38;53905.06;;;-143.77;66.21
13836;BME280;6988;52.614;13.500;2023-08-01T10:11:34;53913.25;;;-143.77;66.52
13836;BME280;6988;52.614;13.500;2023-08-01T10:16:27;53937.88;;;-143.77;66.77
13836;BME280;6988;52.614;13.500;2023-08-01T10:21:20;53950.19;;;-143.77;67.19
13836;BME280;6988;52.614;13.500;2023-08-01T10:26:15;53962.50;;;-143.77;68.03
13836;BME280;6988;52.614;13.500;2023-08-01T10:31:11;53956.34;;;-143.77;68.76
13836;BME280;6988;52.614;13.500;2023-08-01T10:36:14;53956.34;;;-143.77;69.58
13836;BME280;6988;52.614;13.500;2023-08-01T10:41:06;53941.97;;;-143.77;70.63
13836;BME280;6988;52.614;13.500;2023-08-01T10:46:03;54011.75;;;-143.77;71.36
13836;BME280;6988;52.614;13.500;2023-08-01T10:50:56;54017.91;;;-143.77;73.51
13836;BME280;6988;52.614;13.500;2023-08-01T10:55:48;54024.06;;;-143.77;76.85
13836;BME280;6988;52.614;13.500;2023-08-01T11:00:41;54042.50;;;-143.77;78.07
13836;BME280;6988;52.614;13.500;2023-08-01T11:05:35;54073.28;;;-143.77;79.35
13836;BME280;6988;52.614;13.500;2023-08-01T11:10:29;54069.19;;;-143.77;80.36
13836;BME280;6988;52.614;13.500;2023-08-01T11:15:21;54069.19;;;-143.77;80.88
13836;BME280;6988;52.614;13.500;2023-08-01T11:20:14;54054.81;;;-143.77;81.37
13836;BME280;6988;52.614;13.500;2023-08-01T11:25:08;54073.28;;;-143.77;80.06
13836;BME280;6988;52.614;13.500;2023-08-01T11:30:00;54040.47;;;-143.77;79.73
13836;BME280;6988;52.614;13.500;2023-08-01T11:34:54;54050.72;;;-143.77;78.21
13836;BME280;6988;52.614;13.500;2023-08-01T11:39:47;54030.22;;;-143.77;78.43
13836;BME280;6988;52.614;13.500;2023-08-01T11:44:40;54069.19;;;-143.77;77.75
13836;BME280;6988;52.614;13.500;2023-08-01T11:49:32;54011.75;;;-143.77;76.52
13836;BME280;6988;52.614;13.500;2023-08-01T11:54:24;53962.50;;;-143.77;76.70
13836;BME280;6988;52.614;13.500;2023-08-01T11:59:17;53995.31;;;-143.77;73.22
13836;BME280;6988;52.614;13.500;2023-08-01T12:04:10;53954.28;;;-143.77;74.18
13836;BME280;6988;52.614;13.500;2023-08-01T12:09:09;53962.50;;;-143.77;72.26
13836;BME280;6988;52.614;13.500;2023-08-01T12:14:04;53950.19;;;-143.77;72.81
13836;BME280;6988;52.614;13.500;2023-08-01T12:18:57;53909.16;;;-143.77;72.12
13836;BME280;6988;52.614;13.500;2023-08-01T12:23:51;53937.88;;;-143.77;69.50
13836;BME280;6988;52.614;13.500;2023-08-01T12:28:42;53913.25;;;-143.77;68.91
13836;BME280;6988;52.614;13.500;2023-08-01T12:33:34;53968.66;;;-143.77;68.55
13836;BME280;6988;52.614;13.500;2023-08-01T12:38:26;53909.16;;;-143.77;67.90
13836;BME280;6988;52.614;13.500;2023-08-01T12:43:20;53880.44;;;-143.77;67.21
13836;BME280;6988;52.614;13.500;2023-08-01T12:48:11;53917.38;;;-143.77;67.01
13836;BME280;6988;52.614;13.500;2023-08-01T12:53:03;53907.09;;;-143.77;66.52
13836;BME280;6988;52.614;13.500;2023-08-01T12:57:55;53929.69;;;-143.77;65.69
13836;BME280;6988;52.614;13.500;2023-08-01T13:02:48;53781.97;;;-143.77;66.02
13836;BME280;6988;52.614;13.500;2023-08-01T13:07:41;53884.53;;;-143.77;64.84
13836;BME280;6988;52.614;13.500;2023-08-01T13:12:33;53878.38;;;-143.77;64.98
13836;BME280;6988;52.614;13.500;2023-08-01T13:17:24;53855.81;;;-143.77;65.45
13836;BME280;6988;52.614;13.500;2023-08-01T13:22:19;53781.97;;;-143.77;64.64
13836;BME280;6988;52.614;13.500;2023-08-01T13:27:11;53804.53;;;-143.77;63.81
13836;BME280;6988;52.614;13.500;2023-08-01T13:32:03;53841.44;;;-143.77;63.34
13836;BME280;6988;52.614;13.500;2023-08-01T13:36:55;53835.31;;;-143.77;63.26
13836;BME280;6988;52.614;13.500;2023-08-01T13:41:48;53683.50;;;-143.77;61.90
13836;BME280;6988;52.614;13.500;2023-08-01T13:46:40;53699.91;;;-143.77;59.35
13836;BME280;6988;52.614;13.500;2023-08-01T13:51:33;53712.22;;;-143.77;60.34
13836;BME280;6988;52.614;13.500;2023-08-01T13:56:25;53757.34;;;-143.77;60.50
13836;BME280;6988;52.614;13.500;2023-08-01T14:01:19;53790.16;;;-143.77;59.29
13836;BME280;6988;52.614;13.500;2023-08-01T14:06:12;53794.28;;;-143.77;60.32
13836;BME280;6988;52.614;13.500;2023-08-01T14:11:07;53765.53;;;-143.77;60.90
13836;BME280;6988;52.614;13.500;2023-08-01T14:16:00;53781.97;;;-143.77;60.94
13836;BME280;6988;52.614;13.500;2023-08-01T14:21:43;53800.41;;;-143.77;60.15
13836;BME280;6988;52.614;13.500;2023-08-01T14:32:08;53777.84;;;-143.77;57.32
13836;BME280;6988;52.614;13.500;2023-08-01T14:37:02;53671.19;;;-143.77;55.75
13836;BME280;6988;52.614;13.500;2023-08-01T14:42:31;53761.44;;;-143.77;55.80
13836;BME280;6988;52.614;13.500;2023-08-01T14:47:22;53724.50;;;-143.77;54.80
13836;BME280;6988;52.614;13.500;2023-08-01T14:52:16;53753.25;;;-143.77;55.43
13836;BME280;6988;52.614;13.500;2023-08-01T14:57:45;53790.16;;;-143.77;55.75
13836;BME280;6988;52.614;13.500;2023-08-01T15:02:37;53790.16;;;-143.77;55.46
13836;BME280;6988;52.614;13.500;2023-08-01T15:07:30;53835.31;;;-143.77;53.12
13836;BME280;6988;52.614;13.500;2023-08-01T15:12:59;53847.59;;;-143.77;55.18
13836;BME280;6988;52.614;13.500;2023-08-01T15:17:52;53855.81;;;-143.77;56.81
13836;BME280;6988;52.614;13.500;2023-08-01T15:22:45;53917.38;;;-143.77;62.11
13836;BME280;6988;52.614;13.500;2023-08-01T15:27:36;53952.25;;;-143.77;62.83
13836;BME280;6988;52.614;13.500;2023-08-01T15:32:31;53993.28;;;-143.77;64.49
13836;BME280;6988;52.614;13.500;2023-08-01T15:37:45;53976.88;;;-143.77;65.36
13836;BME280;6988;52.614;13.500;2023-08-01T15:42:37;53954.28;;;-143.77;66.68
13836;BME280;6988;52.614;13.500;2023-08-01T15:47:29;53983.00;;;-143.77;66.64
13836;BME280;6988;52.614;13.500;2023-08-01T15:52:59;53956.34;;;-143.77;66.76
13836;BME280;6988;52.614;13.500;2023-08-01T15:57:51;53962.50;;;-143.77;67.05
13836;BME280;6988;52.614;13.500;2023-08-01T16:02:44;53972.75;;;-143.77;66.14
13836;BME280;6988;52.614;13.500;2023-08-01T16:07:36;53937.88;;;-143.77;65.45
13836;BME280;6988;52.614;13.500;2023-08-01T16:12:29;53872.22;;;-143.77;62.11
13836;BME280;6988;52.614;13.500;2023-08-01T16:17:43;53898.91;;;-143.77;61.64
13836;BME280;6988;52.614;13.500;2023-08-01T16:22:34;53907.09;;;-143.77;61.99
13836;BME280;6988;52.614;13.500;2023-08-01T16:27:26;53896.84;;;-143.77;62.34
13836;BME280;6988;52.614;13.500;2023-08-01T16:32:58;53909.16;;;-143.77;62.16
13836;BME280;6988;52.614;13.500;2023-08-01T16:37:50;53941.97;;;-143.77;62.30
13836;BME280;6988;52.614;13.500;2023-08-01T16:42:43;53933.78;;;-143.77;61.97
13836;BME280;6988;52.614;13.500;2023-08-01T16:47:35;53958.41;;;-143.77;62.12
13836;BME280;6988;52.614;13.500;2023-08-01T16:52:28;53950.19;;;-143.77;61.70
13836;BME280;6988;52.614;13.500;2023-08-01T16:57:20;53958.41;;;-143.77;59.81
13836;BME280;6988;52.614;13.500;2023-08-01T17:02:12;53941.97;;;-143.77;58.47
13836;BME280;6988;52.614;13.500;2023-08-01T17:07:06;54042.50;;;-143.77;59.02
13836;BME280;6988;52.614;13.500;2023-08-01T17:11:59;53941.97;;;-143.77;59.06
13836;BME280;6988;52.614;13.500;2023-08-01T17:16:51;53950.19;;;-143.77;59.92
13836;BME280;6988;52.614;13.500;2023-08-01T17:21:43;53952.25;;;-143.77;60.43
13836;BME280;6988;52.614;13.500;2023-08-01T17:26:36;53954.28;;;-143.77;60.79
13836;BME280;6988;52.614;13.500;2023-08-01T17:31:30;53978.91;;;-143.77;61.24
13836;BME280;6988;52.614;13.500;2023-08-01T17:36:22;53966.59;;;-143.77;61.65
13836;BME280;6988;52.614;13.500;2023-08-01T17:41:18;54003.53;;;-143.77;62.30
13836;BME280;6988;52.614;13.500;2023-08-01T17:46:11;53958.41;;;-143.77;61.26
13836;BME280;6988;52.614;13.500;2023-08-01T17:51:05;53991.22;;;-143.77;60.82
13836;BME280;6988;52.614;13.500;2023-08-01T17:55:57;54011.75;;;-143.77;60.20
13836;BME280;6988;52.614;13.500;2023-08-01T18:00:49;53985.06;;;-143.77;58.81
13836;BME280;6988;52.614;13.500;2023-08-01T18:05:41;53966.59;;;-143.77;59.01
13836;BME280;6988;52.614;13.500;2023-08-01T18:10:36;53983.00;;;-143.77;59.60
13836;BME280;6988;52.614;13.500;2023-08-01T18:15:28;53978.91;;;-143.77;60.01
13836;BME280;6988;52.614;13.500;2023-08-01T18:20:20;54005.59;;;-143.77;59.52
13836;BME280;6988;52.614;13.500;2023-08-01T18:25:13;54024.06;;;-143.77;60.82
13836;BME280;6988;52.614;13.500;2023-08-01T18:30:07;54007.63;;;-143.77;61.33
13836;BME280;6988;52.614;13.500;2023-08-01T18:34:59;53995.31;;;-143.77;61.66
13836;BME280;6988;52.614;13.500;2023-08-01T18:39:53;54075.34;;;-143.77;61.72
13836;BME280;6988;52.614;13.500;2023-08-01T18:44:45;54019.94;;;-143.77;62.08
13836;BME280;6988;52.614;13.500;2023-08-01T18:49:38;54038.41;;;-143.77;62.91
13836;BME280;6988;52.614;13.500;2023-08-01T18:54:30;54052.78;;;-143.77;63.09
13836;BME280;6988;52.614;13.500;2023-08-01T18:59:21;54075.34;;;-143.77;63.34
13836;BME280;6988;52.614;13.500;2023-08-01T19:04:13;54032.25;;;-143.77;63.78
13836;BME280;6988;52.614;13.500;2023-08-01T19:09:06;54019.94;;;-143.77;64.32
13836;BME280;6988;52.614;13.500;2023-08-01T19:13:58;54042.50;;;-143.77;64.88
13836;BME280;6988;52.614;13.500;2023-08-01T19:18:50;54069.19;;;-143.77;65.14
13836;BME280;6988;52.614;13.500;2023-08-01T19:23:42;54065.09;;;-143.77;65.58
13836;BME280;6988;52.614;13.500;2023-08-01T19:28:35;54091.75;;;-143.77;66.18
13836;BME280;6988;52.614;13.500;2023-08-01T19:33:28;54073.28;;;-143.77;67.01
13836;BME280;6988;52.614;13.500;2023-08-01T19:38:19;54079.44;;;-143.77;67.76
13836;BME280;6988;52.614;13.500;2023-08-01T19:43:11;54102.00;;;-143.77;68.39
13836;BME280;6988;52.614;13.500;2023-08-01T19:48:05;54081.50;;;-143.77;68.69
13836;BME280;6988;52.614;13.500;2023-08-01T19:52:59;54114.31;;;-143.77;69.13
13836;BME280;6988;52.614;13.500;2023-08-01T19:57:51;54093.81;;;-143.77;69.69
13836;BME280;6988;52.614;13.500;2023-08-01T20:02:45;54108.16;;;-143.77;69.89
13836;BME280;6988;52.614;13.500;2023-08-01T20:07:39;54097.91;;;-143.77;69.78
13836;BME280;6988;52.614;13.500;2023-08-01T20:12:31;54093.81;;;-143.77;70.11
13836;BME280;6988;52.614;13.500;2023-08-01T20:17:24;54083.56;;;-143.77;69.89
13836;BME280;6988;52.614;13.500;2023-08-01T20:22:16;54097.91;;;-143.77;70.29
13836;BME280;6988;52.614;13.500;2023-08-01T20:27:09;54126.63;;;-143.77;70.40
13836;BME280;6988;52.614;13.500;2023-08-01T20:32:01;54122.53;;;-143.77;70.59
13836;BME280;6988;52.614;13.500;2023-08-01T20:36:53;54136.91;;;-143.77;70.01
13836;BME280;6988;52.614;13.500;2023-08-01T20:41:45;54104.06;;;-143.77;69.96
13836;BME280;6988;52.614;13.500;2023-08-01T20:46:38;54134.84;;;-143.77;69.85
13836;BME280;6988;52.614;13.500;2023-08-01T20:51:30;54110.22;;;-143.77;70.03
13836;BME280;6988;52.614;13.500;2023-08-01T20:56:21;54122.53;;;-143.77;70.44
13836;BME280;6988;52.614;13.500;2023-08-01T21:01:13;54114.31;;;-143.77;71.13
13836;BME280;6988;52.614;13.500;2023-08-01T21:06:12;54089.72;;;-143.77;71.56
13836;BME280;6988;52.614;13.500;2023-08-01T21:11:09;54143.06;;;-143.77;71.45
13836;BME280;6988;52.614;13.500;2023-08-01T21:16:10;54136.91;;;-143.77;72.17
13836;BME280;6988;52.614;13.500;2023-08-01T21:21:02;54110.22;;;-143.77;72.43
13836;BME280;6988;52.614;13.500;2023-08-01T21:25:55;54130.75;;;-143.77;72.48
13836;BME280;6988;52.614;13.500;2023-08-01T21:30:47;54136.91;;;-143.77;72.95
13836;BME280;6988;52.614;13.500;2023-08-01T21:35:39;54122.53;;;-143.77;72.72
13836;BME280;6988;52.614;13.500;2023-08-01T21:40:35;54151.25;;;-143.77;72.80
13836;BME280;6988;52.614;13.500;2023-08-01T22:03:47;54169.72;;;-143.77;74.34
13836;BME280;6988;52.614;13.500;2023-08-01T22:08:40;54179.97;;;-143.77;74.49
13836;BME280;6988;52.614;13.500;2023-08-01T22:13:33;54171.78;;;-143.77;74.47
13836;BME280;6988;52.614;13.500;2023-08-01T22:18:25;54167.66;;;-143.77;74.36
13836;BME280;6988;52.614;13.500;2023-08-01T22:23:18;54163.56;;;-143.77;74.07
13836;BME280;6988;52.614;13.500;2023-08-01T22:28:10;54177.94;;;-143.77;73.54
13836;BME280;6988;52.614;13.500;2023-08-01T22:33:02;54136.91;;;-143.77;73.17
13836;BME280;6988;52.614;13.500;2023-08-01T22:37:54;54145.09;;;-143.77;72.88
13836;BME280;6988;52.614;13.500;2023-08-01T22:42:47;54151.25;;;-143.77;72.97
13836;BME280;6988;52.614;13.500;2023-08-01T22:47:39;54157.41;;;-143.77;72.88
13836;BME280;6988;52.614;13.500;2023-08-01T22:52:31;54171.78;;;-143.77;72.93
13836;BME280;6988;52.614;13.500;2023-08-01T22:57:23;54132.78;;;-143.77;72.68
13836;BME280;6988;52.614;13.500;2023-08-01T23:02:16;54167.66;;;-143.77;72.55
13836;BME280;6988;52.614;13.500;2023-08-01T23:07:08;54169.72;;;-143.77;72.28
13836;BME280;6988;52.614;13.500;2023-08-01T23:12:00;54149.22;;;-143.77;72.25
13836;BME280;6988;52.614;13.500;2023-08-01T23:16:52;54132.78;;;-143.77;72.00
13836;BME280;6988;52.614;13.500;2023-08-01T23:21:45;54175.88;;;-143.77;71.58
13836;BME280;6988;52.614;13.500;2023-08-01T23:26:37;54143.06;;;-143.77;71.38
13836;BME280;6988;52.614;13.500;2023-08-01T23:31:29;54157.41;;;-143.77;71.20
13836;BME280;6988;52.614;13.500;2023-08-01T23:36:21;54155.38;;;-143.77;70.78
13836;BME280;6988;52.614;13.500;2023-08-01T23:41:14;54141.00;;;-143.77;70.91
13836;BME280;6988;52.614;13.500;2023-08-01T23:46:06;54145.09;;;-143.77;70.75
13836;BME280;6988;52.614;13.500;2023-08-01T23:50:59;54177.94;;;-143.77;70.43
13836;BME280;6988;52.614;13.500;2023-08-01T23:55:57;54124.59;;;-143.77;70.67
